createdAt,value
2023-01-13T00:01:15.098Z,97050.50
2023-01-13T00:03:16.400Z,97042.06
2023-01-13T00:05:17.731Z,97041.25
2023-01-13T00:07:19.031Z,97042.00
2023-01-13T00:09:20.324Z,97034.34
2023-01-13T00:11:21.666Z,97031.78
2023-01-13T00:13:26.737Z,97036.06
2023-01-13T00:15:28.111Z,97030.13
2023-01-13T00:17:29.449Z,97034.34
2023-01-13T00:19:30.743Z,97030.00
2023-01-13T00:21:32.047Z,97030.88
2023-01-13T00:23:33.352Z,97034.28
2023-01-13T00:25:34.697Z,97027.53
2023-01-13T00:27:35.991Z,97032.63
2023-01-13T00:29:37.301Z,97023.06
2023-01-13T00:31:38.621Z,97021.19
2023-01-13T00:33:39.979Z,97030.44
2023-01-13T00:35:41.266Z,97022.75
2023-01-13T00:37:42.615Z,97032.97
2023-01-13T00:39:44.066Z,97028.69
2023-01-13T00:42:03.817Z,97020.13
2023-01-13T00:44:05.124Z,97017.63
2023-01-13T00:46:06.537Z,97018.47
2023-01-13T00:48:08.383Z,97011.69
2023-01-13T00:50:09.777Z,97021.91
2023-01-13T00:52:11.213Z,97015.06
2023-01-13T00:54:12.573Z,97005.81
2023-01-13T00:56:14.379Z,97011.69
2023-01-13T00:58:15.715Z,97013.34
2023-01-13T01:00:17.016Z,97008.47
2023-01-13T01:02:18.406Z,97006.06
2023-01-13T01:04:19.823Z,97010.28
2023-01-13T01:06:21.155Z,97000.06
2023-01-13T01:08:22.444Z,97002.63
2023-01-13T01:10:23.806Z,97005.28
2023-01-13T01:12:25.146Z,96848.91
2023-01-13T01:14:27.231Z,96997.66
2023-01-13T01:16:28.653Z,97002.84
2023-01-13T01:18:30.005Z,97010.50
2023-01-13T01:20:31.317Z,97005.47
2023-01-13T01:22:32.658Z,97000.41
2023-01-13T01:24:33.967Z,97004.56
2023-01-13T01:26:35.268Z,97000.41
2023-01-13T01:28:36.610Z,97004.69
2023-01-13T01:30:37.906Z,97003.81
2023-01-13T01:32:39.239Z,96995.19
2023-01-13T01:34:40.586Z,96994.34
2023-01-13T01:36:41.924Z,97005.28
2023-01-13T01:38:43.222Z,96996.88
2023-01-13T01:40:44.559Z,97000.22
2023-01-13T01:43:04.643Z,97001.13
2023-01-13T01:45:06.053Z,96998.34
2023-01-13T01:47:07.412Z,97002.34
2023-01-13T01:49:08.868Z,97001.41
2023-01-13T01:51:10.214Z,97001.88
2023-01-13T01:53:11.556Z,96990.81
2023-01-13T01:55:12.845Z,96987.38
2023-01-13T01:57:14.183Z,96999.22
2023-01-13T01:59:15.483Z,96993.25
2023-01-13T02:01:16.908Z,96989.00
2023-01-13T02:03:18.271Z,96990.75
2023-01-13T02:05:19.599Z,96985.66
2023-01-13T02:07:20.938Z,96988.88
2023-01-13T02:09:22.238Z,96981.34
2023-01-13T02:11:43.486Z,96986.53
2023-01-13T02:13:45.035Z,96982.25
2023-01-13T02:15:46.347Z,96983.09
2023-01-13T02:17:48.044Z,96971.31
2023-01-13T02:19:49.344Z,96976.50
2023-01-13T02:21:50.680Z,96973.25
2023-01-13T02:24:10.552Z,96978.47
2023-01-13T02:26:11.868Z,96972.59
2023-01-13T02:28:13.305Z,96972.72
2023-01-13T02:30:33.295Z,96970.28
2023-01-13T02:32:34.582Z,96971.13
2023-01-13T02:34:35.885Z,96967.72
2023-01-13T02:36:37.203Z,96968.56
2023-01-13T02:38:38.509Z,96966.06
2023-01-13T02:40:39.804Z,96966.97
2023-01-13T02:42:59.699Z,96969.53
2023-01-13T02:45:01.049Z,96962.63
2023-01-13T02:47:02.365Z,96953.13
2023-01-13T02:49:03.698Z,96945.50
2023-01-13T02:51:05.073Z,96948.16
2023-01-13T02:53:06.402Z,96938.03
2023-01-13T02:55:07.721Z,96941.41
2023-01-13T02:57:09.016Z,96943.06
2023-01-13T02:59:10.305Z,96937.81
2023-01-13T03:01:11.778Z,96941.09
2023-01-13T03:03:13.150Z,96935.16
2023-01-13T03:05:14.547Z,96939.38
2023-01-13T03:07:16.166Z,96941.84
2023-01-13T03:09:17.468Z,96937.66
2023-01-13T03:11:18.774Z,96939.31
2023-01-13T03:13:20.102Z,96937.59
2023-01-13T03:15:21.399Z,96929.03
2023-01-13T03:17:22.728Z,96928.97
2023-01-13T03:19:24.834Z,96928.97
2023-01-13T03:21:26.126Z,96926.34
2023-01-13T03:23:27.523Z,96925.44
2023-01-13T03:25:28.830Z,96922.75
2023-01-13T03:27:30.134Z,96927.00
2023-01-13T03:29:31.474Z,96920.97
2023-01-13T03:31:32.773Z,96927.75
2023-01-13T03:33:34.126Z,96922.75
2023-01-13T03:35:35.444Z,96919.44
2023-01-13T03:37:36.749Z,96924.69
2023-01-13T03:39:38.246Z,96922.13
2023-01-13T03:41:39.533Z,96918.88
2023-01-13T03:43:59.691Z,96923.28
2023-01-13T03:46:01.096Z,96929.88
2023-01-13T03:48:02.410Z,96923.09
2023-01-13T03:50:03.818Z,96926.28
2023-01-13T03:52:05.150Z,96921.66
2023-01-13T03:54:09.008Z,96919.50
2023-01-13T03:56:10.314Z,96924.06
2023-01-13T03:58:14.417Z,96916.47
2023-01-13T04:00:15.797Z,96917.31
2023-01-13T04:02:17.169Z,96923.22
2023-01-13T04:04:18.482Z,96910.72
2023-01-13T04:06:19.955Z,96913.31
2023-01-13T04:08:21.401Z,96916.81
2023-01-13T04:10:22.726Z,96923.22
2023-01-13T04:12:24.042Z,96907.63
2023-01-13T04:14:25.380Z,96905.28
2023-01-13T04:16:26.676Z,96912.41
2023-01-13T04:18:28.063Z,96897.75
2023-01-13T04:20:29.399Z,96902.66
2023-01-13T04:22:30.690Z,96893.03
2023-01-13T04:24:32.022Z,96744.22
2023-01-13T04:26:33.355Z,96892.69
2023-01-13T04:28:35.060Z,96898.56
2023-01-13T04:30:36.432Z,96885.69
2023-01-13T04:32:37.771Z,96891.53
2023-01-13T04:34:39.085Z,96892.28
2023-01-13T04:36:40.403Z,96898.09
2023-01-13T04:38:41.746Z,96898.09
2023-01-13T04:40:43.032Z,96900.59
2023-01-13T04:42:44.367Z,96901.41
2023-01-13T04:44:45.664Z,96897.91
2023-01-13T04:46:46.955Z,96903.84
2023-01-13T04:48:48.286Z,96904.69
2023-01-13T04:50:49.615Z,96905.53
2023-01-13T04:52:50.961Z,96898.75
2023-01-13T04:54:52.307Z,96911.47
2023-01-13T04:56:53.645Z,96905.53
2023-01-13T04:58:54.975Z,96913.19
2023-01-13T05:00:56.347Z,96905.56
2023-01-13T05:02:57.706Z,96909.84
2023-01-13T05:04:59.165Z,96909.16
2023-01-13T05:07:00.550Z,96917.91
2023-01-13T05:09:01.862Z,96914.75
2023-01-13T05:11:23.171Z,96907.41
2023-01-13T05:13:43.211Z,96912.88
2023-01-13T05:16:05.177Z,96913.16
2023-01-13T05:18:07.882Z,96914.22
2023-01-13T05:20:09.188Z,96914.41
2023-01-13T05:22:29.387Z,96908.47
2023-01-13T05:24:50.344Z,96918.69
2023-01-13T05:26:51.682Z,96920.34
2023-01-13T05:28:52.986Z,96908.44
2023-01-13T05:30:54.334Z,96919.41
2023-01-13T05:32:55.714Z,96910.88
2023-01-13T05:34:57.045Z,96915.06
2023-01-13T05:36:58.437Z,96919.28
2023-01-13T05:38:59.765Z,96915.81
2023-01-13T05:41:19.607Z,96911.56
2023-01-13T05:43:21.168Z,96918.34
2023-01-13T05:45:22.498Z,96914.81
2023-01-13T05:47:23.802Z,96912.19
2023-01-13T05:49:25.169Z,96913.03
2023-01-13T05:51:26.541Z,96914.66
2023-01-13T05:53:27.835Z,96913.84
2023-01-13T05:55:29.173Z,96919.63
2023-01-13T05:57:30.462Z,96917.75
2023-01-13T05:59:31.798Z,96919.41
2023-01-13T06:01:33.211Z,96923.69
2023-01-13T06:03:34.685Z,96920.25
2023-01-13T06:05:36.097Z,96919.41
2023-01-13T06:07:37.398Z,96926.97
2023-01-13T06:09:38.694Z,96927.00
2023-01-13T06:11:40.040Z,96922.72
2023-01-13T06:13:41.420Z,96913.34
2023-01-13T06:15:42.822Z,96916.78
2023-01-13T06:17:44.254Z,96918.38
2023-01-13T06:19:45.558Z,96923.44
2023-01-13T06:21:46.862Z,96916.63
2023-01-13T06:23:48.159Z,96915.72
2023-01-13T06:25:49.465Z,96916.47
2023-01-13T06:27:50.779Z,96914.84
2023-01-13T06:29:52.112Z,96904.66
2023-01-13T06:31:53.490Z,96914.84
2023-01-13T06:33:54.873Z,96918.34
2023-01-13T06:35:56.188Z,96913.22
2023-01-13T06:37:57.503Z,96918.34
2023-01-13T06:39:58.842Z,96915.03
2023-01-13T06:42:19.024Z,96913.34
2023-01-13T06:44:20.325Z,96906.44
2023-01-13T06:46:21.668Z,96910.72
2023-01-13T06:48:23.251Z,96904.81
2023-01-13T06:50:24.564Z,96925.28
2023-01-13T06:52:27.326Z,96913.47
2023-01-13T06:54:28.669Z,96910.84
2023-01-13T06:56:30.037Z,96915.06
2023-01-13T06:58:31.348Z,96917.63
2023-01-13T07:00:35.691Z,96915.16
2023-01-13T07:02:37.491Z,96922.00
2023-01-13T07:04:38.966Z,96918.69
2023-01-13T07:06:40.350Z,96916.97
2023-01-13T07:08:41.646Z,96915.38
2023-01-13T07:10:42.984Z,96916.28
2023-01-13T07:13:03.071Z,96908.59
2023-01-13T07:15:19.854Z,96912.88
2023-01-13T07:17:25.301Z,96913.66
2023-01-13T07:19:26.803Z,96918.78
2023-01-13T07:21:28.108Z,96918.81
2023-01-13T07:23:29.456Z,96908.72
2023-01-13T07:25:32.445Z,96917.09
2023-01-13T07:27:33.756Z,96918.13
2023-01-13T07:29:35.070Z,96926.56
2023-01-13T07:31:36.762Z,96925.66
2023-01-13T07:33:38.054Z,96927.19
2023-01-13T07:35:39.380Z,96930.75
2023-01-13T07:37:42.046Z,96922.16
2023-01-13T07:39:45.164Z,96925.59
2023-01-13T07:42:05.097Z,96924.75
2023-01-13T07:44:06.399Z,96920.38
2023-01-13T07:46:07.784Z,96914.44
2023-01-13T07:48:09.333Z,96922.00
2023-01-13T07:50:10.704Z,96925.41
2023-01-13T07:52:12.006Z,96915.16
2023-01-13T07:54:13.326Z,96915.94
2023-01-13T07:56:14.668Z,96916.09
2023-01-13T07:58:16.068Z,96913.47
2023-01-13T08:00:17.686Z,96922.84
2023-01-13T08:02:19.140Z,96929.63
2023-01-13T08:04:20.556Z,96931.34
2023-01-13T08:06:21.875Z,96926.16
2023-01-13T08:08:23.161Z,96928.69
2023-01-13T08:10:24.471Z,96923.69
2023-01-13T08:12:52.209Z,96924.53
2023-01-13T08:14:58.416Z,96926.16
2023-01-13T08:16:59.851Z,96923.56
2023-01-13T08:19:01.223Z,96939.78
2023-01-13T08:21:02.648Z,96921.06
2023-01-13T08:23:06.952Z,96936.34
2023-01-13T08:25:08.474Z,96927.84
2023-01-13T08:27:09.807Z,96928.59
2023-01-13T08:29:13.689Z,96920.94
2023-01-13T08:31:16.919Z,96914.19
2023-01-13T08:33:18.448Z,96916.66
2023-01-13T08:35:20.211Z,96922.53
2023-01-13T08:37:21.520Z,96920.91
2023-01-13T08:39:22.826Z,96918.47
2023-01-13T08:41:42.807Z,96919.22
2023-01-13T08:43:44.136Z,96917.59
2023-01-13T08:45:45.530Z,96909.84
2023-01-13T08:47:46.894Z,96906.53
2023-01-13T08:49:48.263Z,96913.16
2023-01-13T08:51:49.624Z,96906.44
2023-01-13T08:53:50.928Z,96903.97
2023-01-13T08:55:52.221Z,96918.47
2023-01-13T08:58:00.478Z,96902.31
2023-01-13T09:00:07.893Z,96904.94
2023-01-13T09:02:09.293Z,96904.03
2023-01-13T09:04:10.725Z,96903.25
2023-01-13T09:06:12.082Z,96907.50
2023-01-13T09:08:13.384Z,96918.59
2023-01-13T09:10:14.691Z,96917.75
2023-01-13T09:12:34.689Z,96925.47
2023-01-13T09:14:36.013Z,96916.97
2023-01-13T09:16:37.359Z,96911.88
2023-01-13T09:18:38.722Z,96911.13
2023-01-13T09:20:40.055Z,96909.44
2023-01-13T09:22:41.672Z,96910.28
2023-01-13T09:24:43.010Z,96915.50
2023-01-13T09:26:44.324Z,96923.94
2023-01-13T09:28:45.620Z,96924.75
2023-01-13T09:30:47.034Z,96917.97
2023-01-13T09:32:48.441Z,96923.09
2023-01-13T09:35:02.255Z,96759.78
2023-01-13T09:37:03.666Z,96926.56
2023-01-13T09:39:04.996Z,96917.09
2023-01-13T09:41:26.286Z,96917.97
2023-01-13T09:43:46.333Z,96938.41
2023-01-13T09:45:47.665Z,96922.22
2023-01-13T09:47:51.923Z,96928.88
2023-01-13T09:49:53.224Z,96925.47
2023-01-13T09:51:54.561Z,96924.53
2023-01-13T09:53:55.960Z,96923.75
2023-01-13T09:55:57.309Z,96926.31
2023-01-13T09:57:58.629Z,96933.06
2023-01-13T09:59:59.988Z,96932.38
2023-01-13T10:02:02.195Z,96934.94
2023-01-13T10:04:03.488Z,96925.53
2023-01-13T10:06:04.818Z,96932.38
2023-01-13T10:08:06.661Z,96940.72
2023-01-13T10:10:09.470Z,96928.78
2023-01-13T10:12:29.723Z,96928.88
2023-01-13T10:14:31.046Z,96927.97
2023-01-13T10:16:32.390Z,96930.50
2023-01-13T10:18:33.691Z,96936.56
2023-01-13T10:20:35.767Z,96934.88
2023-01-13T10:22:37.072Z,96926.56
2023-01-13T10:24:38.410Z,96928.19
2023-01-13T10:26:39.703Z,96922.31
2023-01-13T10:28:41.048Z,96856.97
2023-01-13T10:30:42.416Z,96942.84
2023-01-13T10:32:43.938Z,96935.19
2023-01-13T10:34:45.257Z,96873.13
2023-01-13T10:36:46.600Z,96948.84
2023-01-13T10:38:48.036Z,96951.47
2023-01-13T10:40:52.086Z,96942.97
2023-01-13T10:42:53.386Z,96960.13
2023-01-13T10:44:54.698Z,96962.63
2023-01-13T10:46:56.107Z,96965.94
2023-01-13T10:48:57.448Z,96984.72
2023-01-13T10:50:58.745Z,96997.53
2023-01-13T10:53:00.084Z,97010.28
2023-01-13T10:55:01.424Z,97009.53
2023-01-13T10:57:02.773Z,97016.34
2023-01-13T10:59:04.074Z,97029.06
2023-01-13T11:01:05.609Z,97028.31
2023-01-13T11:03:06.983Z,97022.28
2023-01-13T11:05:08.305Z,97019.75
2023-01-13T11:07:09.620Z,97021.47
2023-01-13T11:09:10.915Z,97018.09
2023-01-13T11:11:12.247Z,97003.59
2023-01-13T11:13:13.582Z,96996.56
2023-01-13T11:15:14.919Z,96993.97
2023-01-13T11:17:18.989Z,96999.94
2023-01-13T11:19:20.322Z,96988.00
2023-01-13T11:21:21.625Z,96988.78
2023-01-13T11:23:25.389Z,96986.16
2023-01-13T11:25:33.099Z,96982.78
2023-01-13T11:27:34.446Z,96972.56
2023-01-13T11:29:35.735Z,96977.63
2023-01-13T11:31:37.096Z,96969.06
2023-01-13T11:33:38.462Z,96974.13
2023-01-13T11:35:41.036Z,96967.28
2023-01-13T11:37:42.335Z,96966.38
2023-01-13T11:39:43.678Z,96969.00
2023-01-13T11:42:14.419Z,96965.50
2023-01-13T11:44:15.860Z,96964.66
2023-01-13T11:46:17.247Z,96969.78
2023-01-13T11:48:19.368Z,96972.34
2023-01-13T11:50:20.699Z,96966.38
2023-01-13T11:52:22.045Z,96971.50
2023-01-13T11:54:24.379Z,96977.50
2023-01-13T11:56:27.291Z,96984.34
2023-01-13T11:58:29.066Z,96984.25
2023-01-13T12:00:30.526Z,96981.78
2023-01-13T12:02:31.878Z,96975.13
2023-01-13T12:04:33.232Z,96981.91
2023-01-13T12:06:34.549Z,96989.63
2023-01-13T12:08:35.891Z,96985.22
2023-01-13T12:10:37.193Z,96984.34
2023-01-13T12:12:39.200Z,96982.72
2023-01-13T12:14:40.560Z,96985.28
2023-01-13T12:16:41.886Z,96990.44
2023-01-13T12:18:43.257Z,96988.81
2023-01-13T12:20:44.623Z,96992.19
2023-01-13T12:22:46.732Z,96999.00
2023-01-13T12:24:48.044Z,96993.91
2023-01-13T12:26:49.352Z,96993.00
2023-01-13T12:28:50.892Z,97002.25
2023-01-13T12:30:52.268Z,96993.06
2023-01-13T12:32:53.624Z,96993.91
2023-01-13T12:34:55.177Z,96987.13
2023-01-13T12:36:56.598Z,96992.94
2023-01-13T12:38:58.570Z,96983.59
2023-01-13T12:40:59.870Z,96975.91
2023-01-13T12:43:19.937Z,96965.69
2023-01-13T12:45:21.345Z,96948.78
2023-01-13T12:47:22.648Z,96940.19
2023-01-13T12:49:23.999Z,96941.03
2023-01-13T12:51:25.415Z,96929.16
2023-01-13T12:53:26.721Z,96921.44
2023-01-13T12:55:28.144Z,96923.16
2023-01-13T12:57:29.450Z,96941.88
2023-01-13T12:59:30.739Z,96946.06
2023-01-13T13:01:32.110Z,96958.06
2023-01-13T13:03:33.537Z,96953.88
2023-01-13T13:05:34.968Z,96963.19
2023-01-13T13:07:36.305Z,96962.31
2023-01-13T13:09:37.596Z,96969.88
2023-01-13T13:11:57.848Z,96968.06
2023-01-13T13:13:59.186Z,96963.84
2023-01-13T13:16:00.481Z,96979.94
2023-01-13T13:18:02.372Z,96977.41
2023-01-13T13:20:03.702Z,96988.41
2023-01-13T13:22:05.012Z,96992.84
2023-01-13T13:24:06.367Z,96986.41
2023-01-13T13:26:07.689Z,96990.84
2023-01-13T13:28:09.043Z,97000.94
2023-01-13T13:30:10.368Z,96998.59
2023-01-13T13:32:11.663Z,96986.13
2023-01-13T13:34:13.001Z,96985.41
2023-01-13T13:36:14.359Z,96991.06
2023-01-13T13:38:34.526Z,97000.41
2023-01-13T13:40:54.271Z,97005.44
2023-01-13T13:43:14.082Z,97004.81
2023-01-13T13:45:33.992Z,97007.63
2023-01-13T13:47:35.327Z,97015.53
2023-01-13T13:49:38.440Z,97005.06
2023-01-13T13:51:45.025Z,97008.75
2023-01-13T13:53:46.549Z,97011.66
2023-01-13T13:55:47.844Z,97005.06
2023-01-13T13:57:49.214Z,97011.31
2023-01-13T13:59:50.525Z,97005.63
2023-01-13T14:01:53.605Z,97006.41
2023-01-13T14:03:55.000Z,97017.16
2023-01-13T14:05:56.344Z,97018.72
2023-01-13T14:08:00.550Z,97028.63
2023-01-13T14:10:01.845Z,97027.19
2023-01-13T14:12:03.213Z,97031.44
2023-01-13T14:14:04.557Z,97027.69
2023-01-13T14:16:05.957Z,97023.91
2023-01-13T14:18:07.846Z,97031.44
2023-01-13T14:20:09.645Z,97028.50
2023-01-13T14:22:10.950Z,97030.16
2023-01-13T14:24:12.233Z,97016.72
2023-01-13T14:26:15.032Z,97024.50
2023-01-13T14:28:16.313Z,97021.88
2023-01-13T14:30:17.603Z,97024.69
2023-01-13T14:32:18.903Z,97018.91
2023-01-13T14:34:31.404Z,97019.00
2023-01-13T14:36:34.015Z,97016.50
2023-01-13T14:38:35.347Z,97018.19
2023-01-13T14:40:36.773Z,97030.13
2023-01-13T14:42:40.985Z,97024.06
2023-01-13T14:44:44.956Z,97024.78
2023-01-13T14:46:46.333Z,97022.09
2023-01-13T14:48:48.854Z,97027.03
2023-01-13T14:50:50.207Z,97025.94
2023-01-13T14:52:54.674Z,97025.63
2023-01-13T14:54:56.104Z,97019.41
2023-01-13T14:56:57.433Z,97026.03
2023-01-13T14:58:58.770Z,97029.31
2023-01-13T15:01:00.105Z,97028.38
2023-01-13T15:03:02.224Z,97030.69
2023-01-13T15:05:03.765Z,97036.56
2023-01-13T15:07:05.062Z,97047.19
2023-01-13T15:09:06.363Z,97051.59
2023-01-13T15:11:10.375Z,97058.94
2023-01-13T15:13:11.725Z,97063.13
2023-01-13T15:15:13.230Z,97063.00
2023-01-13T15:17:14.534Z,97058.72
2023-01-13T15:19:15.834Z,97061.22
2023-01-13T15:21:17.227Z,97070.56
2023-01-13T15:23:18.543Z,97079.06
2023-01-13T15:25:23.263Z,97075.75
2023-01-13T15:27:24.593Z,97075.63
2023-01-13T15:29:25.955Z,97074.78
2023-01-13T15:31:27.351Z,97076.56
2023-01-13T15:33:28.735Z,97084.44
2023-01-13T15:35:30.189Z,97082.91
2023-01-13T15:37:31.522Z,97087.25
2023-01-13T15:39:32.832Z,97083.97
2023-01-13T15:41:52.640Z,97092.69
2023-01-13T15:44:12.496Z,97102.25
2023-01-13T15:46:35.540Z,97100.69
2023-01-13T15:48:36.865Z,97105.16
2023-01-13T15:50:38.350Z,97095.97
2023-01-13T15:52:39.702Z,97097.81
2023-01-13T15:54:41.044Z,97104.63
2023-01-13T15:56:42.394Z,97108.22
2023-01-13T15:58:43.720Z,97109.28
2023-01-13T16:00:45.087Z,97110.22
2023-01-13T16:02:46.490Z,97117.09
2023-01-13T16:04:47.860Z,97113.84
2023-01-13T16:06:49.313Z,97113.88
2023-01-13T16:08:50.618Z,97119.91
2023-01-13T16:10:51.915Z,97119.09
2023-01-13T16:12:53.254Z,97115.78
2023-01-13T16:14:54.547Z,97122.56
2023-01-13T16:17:05.005Z,97124.31
2023-01-13T16:19:06.360Z,97127.56
2023-01-13T16:21:07.694Z,97138.59
2023-01-13T16:23:09.040Z,97129.16
2023-01-13T16:25:10.341Z,97137.59
2023-01-13T16:27:11.641Z,97139.22
2023-01-13T16:29:13.074Z,97143.66
2023-01-13T16:31:14.398Z,97146.00
2023-01-13T16:33:15.726Z,97157.19
2023-01-13T16:35:18.898Z,97144.47
2023-01-13T16:37:20.340Z,97139.97
2023-01-13T16:39:21.691Z,97146.97
2023-01-13T16:41:24.947Z,97159.47
2023-01-13T16:43:26.773Z,97157.75
2023-01-13T16:45:28.182Z,97146.94
2023-01-13T16:47:29.614Z,97154.28
2023-01-13T16:49:30.975Z,97150.88
2023-01-13T16:51:33.268Z,97151.38
2023-01-13T16:53:34.618Z,97160.03
2023-01-13T16:55:35.946Z,97154.44
2023-01-13T16:57:40.497Z,97151.16
2023-01-13T16:59:41.829Z,97150.53
2023-01-13T17:01:43.268Z,97165.94
2023-01-13T17:03:44.668Z,97168.13
2023-01-13T17:05:53.027Z,97170.00
2023-01-13T17:07:54.319Z,97178.91
2023-01-13T17:09:55.654Z,97182.56
2023-01-13T17:11:56.958Z,97182.31
2023-01-13T17:13:58.277Z,97185.50
2023-01-13T17:15:59.617Z,97192.25
2023-01-13T17:18:00.924Z,97192.38
2023-01-13T17:20:02.222Z,97186.63
2023-01-13T17:22:03.611Z,97180.38
2023-01-13T17:24:06.410Z,97192.53
2023-01-13T17:26:07.743Z,97173.41
2023-01-13T17:28:09.038Z,97168.78
2023-01-13T17:30:10.392Z,97173.78
2023-01-13T17:32:11.727Z,97170.06
2023-01-13T17:34:13.078Z,97170.78
2023-01-13T17:36:14.390Z,97190.88
2023-01-13T17:38:16.200Z,97194.09
2023-01-13T17:40:17.642Z,97190.19
2023-01-13T17:42:19.003Z,97191.16
2023-01-13T17:44:20.337Z,97192.81
2023-01-13T17:48:27.414Z,97196.34
2023-01-13T17:50:29.816Z,97194.84
2023-01-13T17:52:31.118Z,97199.34
2023-01-13T17:54:32.464Z,97188.47
2023-01-13T17:56:39.708Z,97197.97
2023-01-13T17:58:45.437Z,97193.88
2023-01-13T18:00:46.823Z,97198.44
2023-01-13T18:02:48.175Z,97206.50
2023-01-13T18:04:49.505Z,97202.06
2023-01-13T18:06:51.552Z,97214.75
2023-01-13T18:08:52.868Z,97195.59
2023-01-13T18:11:00.342Z,97216.53
2023-01-13T18:13:03.522Z,97222.84
2023-01-13T18:15:04.826Z,97229.28
2023-01-13T18:17:06.224Z,97232.13
2023-01-13T18:19:26.495Z,97233.59
2023-01-13T18:21:46.364Z,97221.28
2023-01-13T18:24:06.333Z,97230.66
2023-01-13T18:26:26.286Z,97216.44
2023-01-13T18:28:30.311Z,97213.69
2023-01-13T18:30:31.652Z,97215.00
2023-01-13T18:32:33.502Z,97213.09
2023-01-13T18:34:34.845Z,97217.78
2023-01-13T18:36:36.150Z,97231.59
2023-01-13T18:38:37.454Z,97241.94
2023-01-13T18:40:38.748Z,97242.53
2023-01-13T18:42:53.616Z,97245.84
2023-01-13T18:44:56.894Z,97254.81
2023-01-13T18:46:58.223Z,97255.13
2023-01-13T18:48:59.539Z,97262.06
2023-01-13T18:51:00.852Z,97262.19
2023-01-13T18:53:02.176Z,97266.91
2023-01-13T18:55:03.502Z,97267.19
2023-01-13T18:57:04.798Z,97275.03
2023-01-13T18:59:06.137Z,97278.47
2023-01-13T19:01:07.715Z,97288.66
2023-01-13T19:03:09.160Z,97282.31
2023-01-13T19:05:10.599Z,97302.25
2023-01-13T19:07:13.002Z,97302.44
2023-01-13T19:09:14.359Z,97303.72
2023-01-13T19:11:15.721Z,97308.03
2023-01-13T19:13:18.421Z,97318.81
2023-01-13T19:15:20.095Z,97310.66
2023-01-13T19:17:21.475Z,97317.00
2023-01-13T19:19:22.769Z,97325.78
2023-01-13T19:21:25.383Z,97320.03
2023-01-13T19:23:26.801Z,97333.84
2023-01-13T19:25:28.104Z,97340.75
2023-01-13T19:27:29.452Z,97334.22
2023-01-13T19:29:33.115Z,97342.84
2023-01-13T19:31:35.121Z,97337.03
2023-01-13T19:33:36.510Z,97336.28
2023-01-13T19:35:37.802Z,97332.91
2023-01-13T19:37:40.324Z,97331.19
2023-01-13T19:39:41.685Z,97329.41
2023-01-13T19:42:02.166Z,97339.41
2023-01-13T19:44:22.113Z,97334.91
2023-01-13T19:46:23.514Z,97335.56
2023-01-13T19:48:25.032Z,97328.44
2023-01-13T19:50:29.362Z,97333.06
2023-01-13T19:52:30.717Z,97339.34
2023-01-13T19:54:32.021Z,97328.91
2023-01-13T19:56:33.322Z,97334.50
2023-01-13T19:58:34.664Z,97338.47
2023-01-13T20:00:36.179Z,97338.38
2023-01-13T20:02:38.739Z,97336.53
2023-01-13T20:04:44.274Z,97345.78
2023-01-13T20:06:46.500Z,97344.81
2023-01-13T20:08:48.560Z,97344.75
2023-01-13T20:10:49.908Z,97345.78
2023-01-13T20:12:51.363Z,97355.66
2023-01-13T20:14:52.763Z,97343.91
2023-01-13T20:16:54.115Z,97356.56
2023-01-13T20:18:55.408Z,97361.44
2023-01-13T20:20:56.699Z,97353.00
2023-01-13T20:23:01.123Z,97352.03
2023-01-13T20:25:02.521Z,97357.41
2023-01-13T20:27:03.926Z,97362.00
2023-01-13T20:29:05.253Z,97362.03
2023-01-13T20:31:08.938Z,97368.16
2023-01-13T20:33:10.234Z,97375.03
2023-01-13T20:35:11.832Z,97362.03
2023-01-13T20:37:13.196Z,97379.25
2023-01-13T20:39:17.198Z,97365.16
2023-01-13T20:41:37.043Z,97372.22
2023-01-13T20:43:38.351Z,97375.84
2023-01-13T20:45:40.489Z,97374.59
2023-01-13T20:47:44.716Z,97376.78
2023-01-13T20:49:46.063Z,97376.38
2023-01-13T20:51:47.358Z,97381.59
2023-01-13T20:53:48.698Z,97385.00
2023-01-13T20:55:50.004Z,97384.81
2023-01-13T20:58:00.265Z,97388.31
2023-01-13T21:00:02.657Z,97376.47
2023-01-13T21:02:03.966Z,97388.63
2023-01-13T21:04:07.318Z,97396.94
2023-01-13T21:06:08.643Z,97392.03
2023-01-13T21:08:09.970Z,97386.22
2023-01-13T21:10:11.478Z,97379.09
2023-01-13T21:12:31.283Z,97390.38
2023-01-13T21:14:51.161Z,97380.91
2023-01-13T21:16:52.489Z,97395.97
2023-01-13T21:19:10.630Z,97399.16
2023-01-13T21:21:11.970Z,97404.91
2023-01-13T21:23:13.259Z,97405.53
2023-01-13T21:25:14.646Z,97400.78
2023-01-13T21:27:16.080Z,97400.94
2023-01-13T21:29:17.411Z,97397.91
2023-01-13T21:31:19.055Z,97397.38
2023-01-13T21:33:21.700Z,97397.00
2023-01-13T21:35:23.005Z,97399.81
2023-01-13T21:37:24.297Z,97405.69
2023-01-13T21:39:25.648Z,97402.47
2023-01-13T21:41:45.913Z,97409.56
2023-01-13T21:44:05.893Z,97420.50
2023-01-13T21:46:25.717Z,97420.03
2023-01-13T21:48:27.145Z,97422.56
2023-01-13T21:50:34.212Z,97423.13
2023-01-13T21:52:35.617Z,97414.50
2023-01-13T21:54:36.979Z,97412.22
2023-01-13T21:56:38.276Z,97416.94
2023-01-13T21:58:41.909Z,97421.97
2023-01-13T22:00:45.482Z,97430.38
2023-01-13T22:02:47.307Z,97429.53
2023-01-13T22:04:48.728Z,97429.94
2023-01-13T22:06:50.324Z,97431.88
2023-01-13T22:08:52.362Z,97429.69
2023-01-13T22:11:00.654Z,97439.16
2023-01-13T22:13:20.614Z,97440.94
2023-01-13T22:15:25.129Z,97433.25
2023-01-13T22:17:26.494Z,97441.16
2023-01-13T22:19:27.877Z,97432.00
2023-01-13T22:21:29.175Z,97434.41
2023-01-13T22:23:30.499Z,97445.22
2023-01-13T22:25:31.854Z,97442.63
2023-01-13T22:27:36.068Z,97446.06
2023-01-13T22:29:37.806Z,97440.38
2023-01-13T22:31:39.234Z,97451.25
2023-01-13T22:33:40.606Z,97450.72
2023-01-13T22:35:41.905Z,97455.38
2023-01-13T22:37:43.228Z,97458.16
2023-01-13T22:39:44.536Z,97461.63
2023-01-13T22:41:45.833Z,97465.91
2023-01-13T22:43:47.122Z,97478.50
2023-01-13T22:45:48.519Z,97473.34
2023-01-13T22:47:49.976Z,97469.84
2023-01-13T22:49:51.276Z,97468.69
2023-01-13T22:51:52.568Z,97460.81
2023-01-13T22:53:53.862Z,97460.19
2023-01-13T22:55:55.466Z,97464.94
2023-01-13T22:57:56.770Z,97456.16
2023-01-13T23:00:00.757Z,97461.38
2023-01-13T23:02:02.186Z,97468.03
2023-01-13T23:04:03.733Z,97469.81
2023-01-13T23:06:05.770Z,97468.00
2023-01-13T23:08:07.104Z,97464.50
2023-01-13T23:10:08.399Z,97470.28
2023-01-13T23:12:09.714Z,97471.78
2023-01-13T23:14:11.050Z,97473.28
2023-01-13T23:16:12.412Z,97481.59
2023-01-13T23:18:13.713Z,97480.50
2023-01-13T23:20:15.009Z,97475.16
2023-01-13T23:22:16.312Z,97483.41
2023-01-13T23:24:18.029Z,97480.72
2023-01-13T23:26:19.373Z,97481.34
2023-01-13T23:28:22.128Z,97480.03
2023-01-13T23:30:23.437Z,97479.38
2023-01-13T23:32:24.818Z,97476.94
2023-01-13T23:34:26.124Z,97480.53
2023-01-13T23:36:27.470Z,97484.81
2023-01-13T23:38:28.780Z,97475.41
2023-01-13T23:40:30.078Z,97475.59
2023-01-13T23:42:31.562Z,97482.47
2023-01-13T23:44:32.894Z,97479.88
2023-01-13T23:46:35.251Z,97483.19
2023-01-13T23:48:36.680Z,97478.63
2023-01-13T23:50:38.014Z,97480.63
2023-01-13T23:52:39.359Z,97491.88
2023-01-13T23:54:40.656Z,97483.59
2023-01-13T23:56:42.019Z,97490.66
2023-01-13T23:58:43.377Z,97482.16
